Time;durP1;ratioP1;P1;durP2;ratioP2;P2;SDS_P1;SDS_P2;PMS_P1;PMS_P2;Temp;Humidity;BMP_temperature;BMP_pressure;BME280_temperature;BME280_humidity;BME280_pressure;Samples;Min_cycle;Max_cycle;Signal;HPM_P1;HPM_P2
2022/05/04 00:02:00;;;;;;;3.50;1.30;;;13.60;99.90;;;;;;6270191;23;20218;-91
2022/05/04 00:07:34;;;;;;;3.70;0.90;;;13.50;99.90;;;;;;6236525;23;20176;-92
2022/05/04 00:10:06;;;;;;;6.27;1.10;;;13.30;99.90;;;;;;6256026;23;20191;-91
2022/05/04 00:12:37;;;;;;;4.63;1.20;;;13.30;99.90;;;;;;6254058;23;20168;-92
2022/05/04 00:15:14;;;;;;;2.33;1.00;;;12.90;99.90;;;;;;6260003;22;20159;-92
2022/05/04 00:17:47;;;;;;;3.83;1.00;;;12.90;99.90;;;;;;6261972;22;20175;-91
2022/05/04 00:20:18;;;;;;;12.80;1.73;;;12.90;99.90;;;;;;6255152;23;20195;-91
2022/05/04 00:22:51;;;;;;;5.33;1.90;;;12.80;99.90;;;;;;6262649;23;20171;-92
2022/05/04 00:25:22;;;;;;;6.17;1.47;;;12.70;99.90;;;;;;6262759;23;20176;-92
2022/05/04 00:28:02;;;;;;;4.60;1.60;;;12.70;99.90;;;;;;6258243;23;20179;-92
2022/05/04 00:30:33;;;;;;;7.00;1.43;;;12.60;99.90;;;;;;6262234;23;20198;-90
2022/05/04 00:33:05;;;;;;;4.20;1.27;;;12.50;99.90;;;;;;6264127;23;20179;-90
2022/05/04 00:35:36;;;;;;;6.63;1.53;;;12.50;99.90;;;;;;6261465;23;20163;-91
2022/05/04 00:38:10;;;;;;;10.10;1.23;;;12.40;99.90;;;;;;6264393;22;20203;-91
2022/05/04 00:40:56;;;;;;;6.33;1.47;;;12.40;99.90;;;;;;6241818;22;20251;-91
2022/05/04 00:43:28;;;;;;;3.87;1.33;;;12.40;99.90;;;;;;6259697;23;20183;-91
2022/05/04 00:45:59;;;;;;;6.53;1.73;;;12.40;99.90;;;;;;6228414;23;20195;-91
2022/05/04 00:48:32;;;;;;;4.47;1.63;;;12.30;99.90;;;;;;6259696;23;20179;-91
2022/05/04 00:51:04;;;;;;;4.40;1.60;;;12.30;99.90;;;;;;6252601;23;20230;-91
2022/05/04 00:53:39;;;;;;;7.33;2.20;;;12.30;99.90;;;;;;6258814;23;20202;-91
2022/05/04 00:56:12;;;;;;;5.93;1.60;;;12.10;99.90;;;;;;6257388;23;20247;-91
2022/05/04 00:58:58;;;;;;;6.03;1.87;;;12.00;99.90;;;;;;6251414;23;20248;-91
2022/05/04 01:01:31;;;;;;;8.37;1.87;;;11.90;99.90;;;;;;6264670;23;20176;-91
2022/05/04 01:04:03;;;;;;;5.77;1.77;;;11.80;99.90;;;;;;6257349;22;20176;-90
2022/05/04 01:06:36;;;;;;;7.10;1.60;;;11.70;99.90;;;;;;6256940;23;20176;-91
2022/05/04 01:09:09;;;;;;;5.17;1.60;;;11.60;99.90;;;;;;6250710;23;20222;-91
2022/05/04 01:11:41;;;;;;;7.47;2.00;;;11.60;99.90;;;;;;6231885;23;20199;-91
2022/05/04 01:14:15;;;;;;;5.33;1.67;;;11.50;99.90;;;;;;6250724;23;20175;-91
2022/05/04 01:16:50;;;;;;;8.73;1.83;;;11.40;99.90;;;;;;6251671;23;20568;-91
2022/05/04 01:19:21;;;;;;;6.97;1.83;;;11.40;99.90;;;;;;6251018;23;20175;-91
2022/05/04 01:21:54;;;;;;;6.37;1.83;;;11.30;99.90;;;;;;6251213;23;20237;-91
2022/05/04 01:24:25;;;;;;;6.53;1.80;;;11.40;99.90;;;;;;6251936;23;20164;-91
2022/05/04 01:26:57;;;;;;;5.67;2.00;;;11.40;99.90;;;;;;6259112;23;20176;-89
2022/05/04 01:29:28;;;;;;;7.93;2.10;;;11.40;99.90;;;;;;6235766;23;20176;-91
2022/05/04 01:32:00;;;;;;;7.00;1.90;;;11.40;99.90;;;;;;6268173;23;20191;-92
2022/05/04 01:34:40;;;;;;;6.83;1.80;;;11.40;99.90;;;;;;6256841;23;20178;-90
2022/05/04 01:37:17;;;;;;;8.60;2.00;;;11.40;99.90;;;;;;6254542;23;20179;-91
2022/05/04 01:39:49;;;;;;;5.63;1.70;;;11.40;99.90;;;;;;6258578;23;20249;-91
2022/05/04 01:42:24;;;;;;;6.87;1.87;;;11.30;99.90;;;;;;6257067;23;20179;-91
2022/05/04 01:44:56;;;;;;;9.83;2.00;;;11.30;99.90;;;;;;6256446;23;20187;-91
2022/05/04 01:47:27;;;;;;;6.70;1.70;;;11.30;99.90;;;;;;6262835;23;20174;-91
2022/05/04 01:49:58;;;;;;;10.47;2.20;;;11.30;99.90;;;;;;6257716;23;20233;-90
2022/05/04 02:03:08;;;;;;;12.70;2.23;;;11.40;99.90;;;;;;5053777;27;3170488;-90
2022/05/04 02:05:39;;;;;;;8.60;1.97;;;11.00;99.90;;;;;;5136935;28;20482;-90
2022/05/04 02:08:10;;;;;;;9.00;2.00;;;11.10;99.90;;;;;;5125966;28;20210;-90
2022/05/04 02:10:42;;;;;;;10.97;2.33;;;11.10;99.90;;;;;;5130056;28;20233;-90
2022/05/04 02:13:14;;;;;;;10.73;2.40;;;11.00;99.90;;;;;;5120979;28;20293;-90
2022/05/04 02:15:54;;;;;;;8.30;1.83;;;11.00;99.90;;;;;;5124723;28;20221;-90
2022/05/04 02:18:42;;;;;;;10.77;2.23;;;11.00;99.90;;;;;;5112213;28;20203;-90
2022/05/04 02:31:56;;;;;;;8.30;2.07;;;10.80;99.90;;;;;;5088663;28;20230;-91
2022/05/04 02:34:30;;;;;;;11.13;2.10;;;10.70;99.90;;;;;;5088815;28;20188;-91
2022/05/04 02:39:53;;;;;;;13.80;2.20;;;10.60;99.90;;;;;;5089931;28;20230;-91
2022/05/04 02:42:26;;;;;;;10.17;2.10;;;10.70;99.90;;;;;;5088712;28;20212;-91
2022/05/04 02:44:59;;;;;;;9.53;2.30;;;10.60;99.90;;;;;;5088688;28;20196;-91
2022/05/04 02:47:31;;;;;;;11.43;2.40;;;10.50;99.90;;;;;;5086911;28;20237;-91
2022/05/04 02:50:06;;;;;;;13.67;3.20;;;10.50;99.90;;;;;;5086616;28;20188;-91
2022/05/04 02:52:37;;;;;;;12.07;2.33;;;10.40;99.90;;;;;;5085105;28;20262;-90
2022/05/04 02:55:10;;;;;;;9.47;2.10;;;10.40;99.90;;;;;;5084561;28;20224;-92
2022/05/04 02:57:42;;;;;;;6.93;2.27;;;10.40;99.90;;;;;;5086479;28;20208;-91
2022/05/04 03:00:16;;;;;;;12.27;2.30;;;10.30;99.90;;;;;;5070019;28;20215;-91
2022/05/04 03:02:48;;;;;;;7.03;2.63;;;10.30;99.90;;;;;;5067363;28;20278;-89
2022/05/04 03:05:22;;;;;;;9.03;2.33;;;10.20;99.90;;;;;;5072503;28;20220;-91
2022/05/04 03:07:58;;;;;;;8.53;2.40;;;10.20;99.90;;;;;;5101158;22;20240;-91
2022/05/04 03:10:29;;;;;;;8.67;2.20;;;10.20;99.90;;;;;;5052690;28;20208;-91
2022/05/04 03:13:01;;;;;;;6.97;1.97;;;10.20;99.90;;;;;;5050698;28;20301;-89
2022/05/04 03:15:34;;;;;;;12.37;2.00;;;10.30;99.90;;;;;;5052897;28;20220;-91
2022/05/04 03:18:06;;;;;;;7.30;2.00;;;10.20;99.90;;;;;;5052746;28;20201;-90
2022/05/04 03:20:43;;;;;;;8.77;1.90;;;10.20;99.90;;;;;;5052954;28;20209;-91
2022/05/04 03:23:17;;;;;;;8.27;2.40;;;10.20;99.90;;;;;;5052968;28;20223;-90
2022/05/04 03:25:52;;;;;;;13.00;2.33;;;10.10;99.90;;;;;;5051615;28;20224;-90
2022/05/04 03:28:24;;;;;;;9.77;2.43;;;10.10;99.90;;;;;;5052306;28;20238;-90
2022/05/04 03:30:57;;;;;;;11.47;3.03;;;10.20;99.90;;;;;;5052687;28;20259;-90
2022/05/04 03:33:31;;;;;;;10.17;2.60;;;10.00;99.90;;;;;;5048529;28;20226;-90
2022/05/04 03:36:06;;;;;;;7.87;2.40;;;10.10;99.90;;;;;;5042349;28;20241;-90
2022/05/04 03:38:38;;;;;;;9.80;2.43;;;10.00;99.90;;;;;;5042780;28;20204;-91
2022/05/04 03:41:09;;;;;;;8.40;2.10;;;10.00;99.90;;;;;;5049821;28;20200;-91
2022/05/04 03:43:40;;;;;;;7.47;2.00;;;9.90;99.90;;;;;;5057409;28;20227;-91
2022/05/04 03:46:16;;;;;;;12.50;2.70;;;9.90;99.90;;;;;;5056145;28;20231;-90
2022/05/04 03:48:58;;;;;;;13.53;2.23;;;9.90;99.90;;;;;;5055658;28;20243;-90
2022/05/04 03:51:33;;;;;;;9.93;2.37;;;9.90;99.90;;;;;;5053494;28;20370;-90
2022/05/04 03:54:08;;;;;;;8.53;1.77;;;9.90;99.90;;;;;;5055618;28;20219;-90
2022/05/04 03:56:41;;;;;;;10.00;2.30;;;9.80;99.90;;;;;;5054898;28;20216;-90
2022/05/04 03:59:12;;;;;;;8.27;2.47;;;9.80;99.90;;;;;;5049536;28;20423;-91
2022/05/04 04:01:44;;;;;;;10.17;2.90;;;9.90;99.90;;;;;;5045452;28;20249;-90
2022/05/04 04:04:17;;;;;;;9.50;2.63;;;9.90;99.90;;;;;;5050782;28;20236;-90
2022/05/04 04:06:50;;;;;;;7.87;2.43;;;9.90;99.90;;;;;;5039617;28;20251;-91
2022/05/04 04:09:21;;;;;;;6.87;2.23;;;9.80;99.90;;;;;;5042918;28;20251;-91
2022/05/04 04:11:53;;;;;;;11.33;2.50;;;9.80;99.90;;;;;;5052382;28;20254;-91
2022/05/04 04:14:26;;;;;;;14.37;2.50;;;9.80;99.90;;;;;;5022058;28;20217;-91
2022/05/04 04:16:59;;;;;;;8.10;2.77;;;9.80;99.90;;;;;;5022751;28;20229;-90
2022/05/04 04:19:32;;;;;;;8.80;2.43;;;9.80;99.90;;;;;;5021232;28;20209;-91
2022/05/04 04:22:04;;;;;;;8.10;3.03;;;9.80;99.90;;;;;;5022573;28;20236;-92
2022/05/04 04:24:35;;;;;;;12.17;2.80;;;9.70;99.90;;;;;;5019995;28;20236;-91
2022/05/04 04:27:07;;;;;;;12.37;2.73;;;9.80;99.90;;;;;;5039544;28;20220;-90
2022/05/04 04:29:38;;;;;;;11.30;2.80;;;9.70;99.90;;;;;;5058582;28;20208;-89
2022/05/04 04:32:10;;;;;;;21.03;3.33;;;9.60;99.90;;;;;;5059910;28;20324;-90
2022/05/04 04:34:43;;;;;;;14.77;2.80;;;9.60;99.90;;;;;;5042250;28;20216;-90
2022/05/04 04:37:19;;;;;;;8.50;2.60;;;9.60;99.90;;;;;;5059728;28;20266;-91
2022/05/04 04:39:50;;;;;;;11.20;2.57;;;9.60;99.90;;;;;;5059112;28;20276;-90
2022/05/04 04:42:22;;;;;;;11.30;2.67;;;9.60;99.90;;;;;;5058344;28;20287;-90
2022/05/04 04:44:54;;;;;;;12.57;2.50;;;9.60;99.90;;;;;;5057818;28;20212;-91
2022/05/04 04:47:25;;;;;;;8.17;2.80;;;9.60;99.90;;;;;;5056224;28;20243;-91
2022/05/04 04:49:58;;;;;;;13.03;2.90;;;9.50;99.90;;;;;;5058052;28;20236;-90
2022/05/04 04:52:32;;;;;;;8.80;2.43;;;9.50;99.90;;;;;;5057385;28;20677;-91
2022/05/04 04:55:03;;;;;;;7.63;2.37;;;9.50;99.90;;;;;;5057520;28;20235;-91
2022/05/04 04:57:35;;;;;;;10.70;2.43;;;9.50;99.90;;;;;;5057555;28;20197;-90
2022/05/04 05:00:07;;;;;;;9.40;2.43;;;9.60;99.90;;;;;;5058303;28;20201;-90
2022/05/04 05:02:40;;;;;;;12.23;2.63;;;9.60;99.90;;;;;;5056651;28;20232;-90
2022/05/04 05:05:12;;;;;;;13.50;2.70;;;9.50;99.90;;;;;;5037676;28;20221;-90
2022/05/04 05:07:45;;;;;;;9.07;2.33;;;9.50;99.90;;;;;;5038649;28;20235;-88
2022/05/04 05:10:20;;;;;;;7.63;2.33;;;9.50;99.90;;;;;;5050629;28;20275;-90
2022/05/04 05:12:52;;;;;;;12.40;2.57;;;9.40;99.90;;;;;;5048482;28;20263;-91
2022/05/04 05:18:12;;;;;;;10.20;2.30;;;9.40;99.90;;;;;;5044638;28;20209;-90
2022/05/04 05:20:44;;;;;;;13.27;2.33;;;9.30;99.90;;;;;;5046965;28;20312;-91
2022/05/04 05:23:19;;;;;;;11.97;2.77;;;9.30;99.90;;;;;;5049529;28;20641;-91
2022/05/04 05:25:52;;;;;;;7.43;2.40;;;9.40;99.90;;;;;;5048716;28;20205;-91
2022/05/04 05:28:25;;;;;;;14.17;2.83;;;9.40;99.90;;;;;;5042743;28;20216;-91
2022/05/04 05:30:57;;;;;;;10.07;2.53;;;9.40;99.90;;;;;;5040088;28;20213;-91
2022/05/04 05:33:28;;;;;;;9.73;2.50;;;9.30;99.90;;;;;;5036807;28;20627;-91
2022/05/04 05:35:59;;;;;;;7.80;1.80;;;9.30;99.90;;;;;;5037256;28;20302;-92
2022/05/04 05:38:36;;;;;;;9.20;2.40;;;9.30;99.90;;;;;;5045211;28;20229;-91
2022/05/04 05:41:08;;;;;;;8.67;2.40;;;9.10;99.90;;;;;;5037977;28;20209;-89
2022/05/04 05:43:39;;;;;;;10.93;2.20;;;9.20;99.90;;;;;;5039714;28;20205;-91
2022/05/04 05:46:10;;;;;;;10.10;2.10;;;9.20;99.90;;;;;;5038807;28;20264;-92
2022/05/04 05:48:42;;;;;;;13.30;3.20;;;9.20;99.90;;;;;;5037154;28;20200;-91
2022/05/04 05:51:14;;;;;;;9.40;2.30;;;9.30;99.90;;;;;;5037769;28;20251;-92
2022/05/04 05:53:47;;;;;;;9.10;2.40;;;9.30;99.90;;;;;;5050786;28;20316;-90
2022/05/04 05:56:18;;;;;;;8.13;2.00;;;9.30;99.90;;;;;;5055430;28;20193;-91
2022/05/04 05:58:49;;;;;;;7.77;1.90;;;9.30;99.90;;;;;;5045928;28;20291;-91
2022/05/04 06:01:20;;;;;;;9.13;2.40;;;9.20;99.90;;;;;;5037488;28;20201;-91
2022/05/04 06:03:52;;;;;;;7.70;2.07;;;9.20;99.90;;;;;;5037361;28;20219;-92
2022/05/04 06:06:23;;;;;;;11.27;2.50;;;9.20;99.90;;;;;;5036727;28;20224;-91
2022/05/04 06:08:56;;;;;;;9.07;2.40;;;9.10;99.90;;;;;;5034874;28;20223;-92
2022/05/04 06:11:27;;;;;;;10.97;1.73;;;9.20;99.90;;;;;;5037075;28;20224;-91
2022/05/04 06:13:59;;;;;;;9.43;2.27;;;9.20;99.90;;;;;;5036684;28;20236;-91
2022/05/04 06:16:30;;;;;;;7.73;2.17;;;9.20;99.90;;;;;;5036424;28;20236;-91
2022/05/04 06:19:01;;;;;;;9.73;2.70;;;9.20;99.90;;;;;;5036757;28;20244;-91
2022/05/04 06:21:32;;;;;;;12.33;2.40;;;9.20;99.90;;;;;;5035860;28;20205;-91
2022/05/04 06:24:07;;;;;;;12.07;2.57;;;9.20;99.90;;;;;;5044778;28;20215;-90
2022/05/04 06:26:38;;;;;;;9.00;2.17;;;9.10;99.90;;;;;;5036492;28;20659;-91
2022/05/04 06:29:09;;;;;;;6.10;2.43;;;9.20;99.90;;;;;;5038864;28;20216;-91
2022/05/04 06:34:29;;;;;;;10.90;2.40;;;9.20;99.90;;;;;;5040541;28;20268;-91
2022/05/04 06:37:05;;;;;;;9.40;2.10;;;9.20;99.90;;;;;;5045349;28;20215;-92
2022/05/04 06:39:38;;;;;;;9.57;2.20;;;9.20;99.90;;;;;;5047848;28;20216;-92
2022/05/04 06:42:12;;;;;;;7.57;2.53;;;9.10;99.90;;;;;;5075925;28;20191;-89
2022/05/04 06:44:44;;;;;;;10.17;2.67;;;9.10;99.90;;;;;;5076890;28;20196;-91
2022/05/04 06:47:15;;;;;;;10.57;2.40;;;9.10;99.90;;;;;;5072866;28;20299;-91
2022/05/04 06:49:46;;;;;;;9.60;2.53;;;9.20;99.90;;;;;;5068139;28;20217;-91
2022/05/04 06:52:24;;;;;;;9.50;2.47;;;9.10;99.90;;;;;;5068215;28;20212;-91
2022/05/04 06:54:57;;;;;;;9.00;1.97;;;9.10;99.90;;;;;;5065368;28;20326;-91
2022/05/04 06:57:30;;;;;;;6.93;2.33;;;9.00;99.90;;;;;;5061691;28;20204;-91
2022/05/04 07:00:04;;;;;;;11.47;2.97;;;8.90;99.90;;;;;;5062795;28;20243;-91
2022/05/04 07:02:36;;;;;;;10.13;2.30;;;8.90;99.90;;;;;;5061496;28;20232;-92
2022/05/04 07:05:08;;;;;;;10.67;2.60;;;9.00;99.90;;;;;;5040586;28;20264;-91
2022/05/04 07:07:39;;;;;;;8.90;2.43;;;9.00;99.90;;;;;;5040546;28;20297;-91
2022/05/04 07:10:24;;;;;;;7.63;2.37;;;9.00;99.90;;;;;;5040395;28;20219;-91
2022/05/04 07:12:56;;;;;;;9.77;2.30;;;8.90;99.90;;;;;;5040927;28;20228;-91
2022/05/04 07:15:27;;;;;;;11.40;2.30;;;8.90;99.90;;;;;;5040925;28;20201;-91
2022/05/04 07:17:59;;;;;;;8.33;2.57;;;8.90;99.90;;;;;;5040512;28;20224;-91
2022/05/04 07:20:30;;;;;;;8.03;1.80;;;8.90;99.90;;;;;;5040016;28;20213;-91
2022/05/04 07:23:01;;;;;;;10.60;2.33;;;8.90;99.90;;;;;;5038606;28;20208;-92
2022/05/04 07:25:34;;;;;;;12.07;2.57;;;8.90;99.90;;;;;;5040098;28;20290;-91
2022/05/04 07:28:08;;;;;;;11.83;2.70;;;8.90;99.90;;;;;;5040183;28;20323;-90
2022/05/04 07:30:39;;;;;;;13.03;2.47;;;8.80;99.90;;;;;;5047263;28;20205;-92
2022/05/04 07:33:10;;;;;;;8.27;2.77;;;8.70;99.90;;;;;;5046193;28;20231;-91
2022/05/04 07:35:42;;;;;;;7.30;2.10;;;8.70;99.90;;;;;;5057367;28;20235;-91
2022/05/04 07:38:13;;;;;;;8.87;2.57;;;8.60;99.90;;;;;;5057785;28;20196;-91
2022/05/04 07:43:34;;;;;;;6.93;2.13;;;8.60;99.90;;;;;;5044859;28;20259;-91
2022/05/04 07:46:06;;;;;;;10.70;2.53;;;8.50;99.90;;;;;;5040253;28;20209;-91
2022/05/04 07:48:37;;;;;;;8.67;2.37;;;8.50;99.90;;;;;;5041940;28;20239;-91
2022/05/04 07:51:11;;;;;;;8.20;2.53;;;8.50;99.90;;;;;;5038923;28;20671;-91
2022/05/04 07:53:42;;;;;;;4.80;2.33;;;8.60;99.90;;;;;;5039091;28;20631;-89
2022/05/04 07:56:15;;;;;;;8.73;2.30;;;8.60;99.90;;;;;;5039473;28;20201;-89
2022/05/04 07:58:46;;;;;;;9.57;2.40;;;8.60;99.90;;;;;;5042035;28;20213;-90
2022/05/04 08:04:21;;;;;;;11.87;2.67;;;8.60;99.90;;;;;;5047017;28;20201;-90
2022/05/04 08:06:53;;;;;;;10.40;2.63;;;8.50;99.90;;;;;;5045684;28;20205;-90
2022/05/04 08:09:24;;;;;;;7.57;2.33;;;8.50;99.90;;;;;;5040300;28;20209;-90
2022/05/04 08:11:58;;;;;;;6.43;2.00;;;8.50;99.90;;;;;;5039778;28;20311;-91
2022/05/04 08:14:30;;;;;;;11.07;3.23;;;8.50;99.90;;;;;;5043991;28;20267;-90
2022/05/04 08:17:01;;;;;;;8.63;2.40;;;8.50;99.90;;;;;;5043421;28;20223;-90
2022/05/04 08:19:33;;;;;;;7.37;2.50;;;8.60;99.90;;;;;;5039138;28;20251;-90
2022/05/04 08:22:05;;;;;;;11.23;2.60;;;8.60;99.90;;;;;;5041388;28;20303;-90
2022/05/04 08:24:36;;;;;;;12.33;2.90;;;8.50;99.90;;;;;;5039916;28;20209;-90
2022/05/04 08:27:10;;;;;;;7.20;2.50;;;8.50;99.90;;;;;;5039779;28;20340;-90
2022/05/04 08:29:44;;;;;;;8.40;2.20;;;8.50;99.90;;;;;;5039743;28;20270;-90
2022/05/04 08:32:19;;;;;;;6.10;2.13;;;8.40;99.90;;;;;;5039472;28;20267;-90
2022/05/04 08:34:51;;;;;;;9.97;2.27;;;8.40;99.90;;;;;;5044329;28;20285;-90
2022/05/04 08:37:27;;;;;;;6.50;2.23;;;8.30;99.90;;;;;;5056926;28;20206;-90
2022/05/04 08:39:58;;;;;;;8.37;2.30;;;8.30;99.90;;;;;;5057680;28;20745;-90
2022/05/04 08:42:32;;;;;;;6.33;2.40;;;8.30;99.90;;;;;;5058633;28;20204;-90
2022/05/04 08:45:04;;;;;;;8.20;2.83;;;8.30;99.90;;;;;;5041677;28;20291;-89
2022/05/04 08:47:37;;;;;;;5.90;2.47;;;8.30;99.90;;;;;;5057602;28;20276;-90
2022/05/04 08:50:15;;;;;;;6.33;2.60;;;8.20;99.90;;;;;;5057653;28;20203;-90
2022/05/04 08:52:53;;;;;;;9.40;2.90;;;8.20;99.90;;;;;;5059271;28;20212;-90
2022/05/04 08:55:26;;;;;;;8.23;2.17;;;8.30;99.90;;;;;;5057747;28;20301;-90
2022/05/04 08:57:59;;;;;;;9.77;2.43;;;8.20;99.90;;;;;;5064549;28;20212;-90
2022/05/04 09:00:32;;;;;;;5.93;2.07;;;8.20;99.90;;;;;;5071223;28;20204;-90
2022/05/04 09:03:03;;;;;;;6.70;2.10;;;8.20;99.90;;;;;;5064369;28;20207;-90
2022/05/04 09:05:39;;;;;;;5.93;2.07;;;8.20;99.90;;;;;;5037690;28;20267;-90
2022/05/04 09:08:11;;;;;;;9.07;2.37;;;8.20;99.90;;;;;;5037065;28;20293;-90
2022/05/04 09:10:48;;;;;;;9.37;2.70;;;8.10;99.90;;;;;;5038254;28;20208;-90
2022/05/04 09:13:22;;;;;;;4.93;2.70;;;8.10;99.90;;;;;;5037947;28;20209;-90
2022/05/04 09:15:57;;;;;;;6.83;2.37;;;8.10;99.90;;;;;;5037456;28;20293;-90
2022/05/04 09:18:36;;;;;;;7.13;2.20;;;8.10;99.90;;;;;;5044231;28;20285;-90
2022/05/04 09:21:08;;;;;;;8.23;2.07;;;8.10;99.90;;;;;;5037530;28;20667;-90
2022/05/04 09:23:40;;;;;;;10.50;2.60;;;8.10;99.90;;;;;;5036667;28;20295;-90
2022/05/04 09:26:18;;;;;;;8.10;2.70;;;8.10;99.90;;;;;;5036641;28;20213;-90
2022/05/04 09:28:58;;;;;;;8.43;2.27;;;8.00;99.90;;;;;;5036051;28;20239;-90
2022/05/04 09:31:32;;;;;;;11.07;2.60;;;8.00;99.90;;;;;;5037210;28;20212;-90
2022/05/04 09:34:08;;;;;;;5.93;2.50;;;8.00;99.90;;;;;;5036729;28;20216;-90
2022/05/04 09:44:53;;;;;;;6.20;2.47;;;7.90;99.90;;;;;;5038065;28;20398;-90
2022/05/04 09:45:13;;;;;;;9.43;2.47;;;7.90;99.90;;;;;;5037208;28;20212;-90
2022/05/04 09:47:45;;;;;;;11.90;2.53;;;7.80;99.90;;;;;;5044388;28;20208;-90
2022/05/04 09:50:18;;;;;;;10.43;2.67;;;7.80;99.90;;;;;;5036966;28;20205;-89
2022/05/04 09:52:52;;;;;;;11.20;2.50;;;7.80;99.90;;;;;;5038664;28;20382;-90
2022/05/04 09:55:24;;;;;;;10.23;2.70;;;7.70;99.90;;;;;;5038990;28;20213;-90
2022/05/04 09:57:57;;;;;;;10.20;3.03;;;7.80;99.90;;;;;;5038612;28;20212;-90
2022/05/04 10:00:30;;;;;;;10.97;2.60;;;7.70;99.90;;;;;;5038362;28;20212;-90
2022/05/04 10:03:01;;;;;;;7.77;2.50;;;7.80;99.90;;;;;;5038226;28;20212;-90
2022/05/04 10:05:34;;;;;;;6.63;2.40;;;7.80;99.90;;;;;;5038151;28;20219;-89
2022/05/04 10:08:06;;;;;;;9.43;2.50;;;7.70;99.90;;;;;;5037983;28;20282;-90
2022/05/04 10:10:37;;;;;;;5.93;2.37;;;7.70;99.90;;;;;;5038872;28;20299;-90
2022/05/04 10:13:10;;;;;;;9.33;2.50;;;7.70;99.90;;;;;;5048224;28;20288;-90
2022/05/04 10:15:44;;;;;;;10.30;2.80;;;7.70;99.90;;;;;;5051419;28;20282;-90
2022/05/04 10:18:20;;;;;;;8.50;2.47;;;7.70;99.90;;;;;;5046853;28;20282;-90
2022/05/04 10:21:01;;;;;;;12.33;2.50;;;7.70;99.90;;;;;;5043163;28;20209;-90
2022/05/04 10:23:38;;;;;;;9.90;2.63;;;7.70;99.90;;;;;;5043689;28;20645;-90
2022/05/04 10:26:12;;;;;;;7.47;2.47;;;7.70;99.90;;;;;;5043188;28;20228;-90
2022/05/04 10:30:29;;;;;;;9.63;3.00;;;7.60;99.90;;;;;;5043476;28;20666;-89
2022/05/04 10:31:37;;;;;;;10.17;2.67;;;7.60;99.90;;;;;;5042547;28;20636;-89
2022/05/04 10:34:09;;;;;;;8.17;2.67;;;7.60;99.90;;;;;;5043671;28;20213;-90
2022/05/04 10:36:49;;;;;;;6.53;2.40;;;7.60;99.90;;;;;;5050083;28;20236;-90
2022/05/04 10:39:23;;;;;;;7.03;2.77;;;7.60;99.90;;;;;;5041528;28;20211;-89
2022/05/04 10:41:56;;;;;;;6.50;2.37;;;7.60;99.90;;;;;;5040327;28;20208;-89
2022/05/04 10:44:54;;;;;;;7.47;2.50;;;7.70;99.90;;;;;;5048040;28;20290;-90
2022/05/04 10:47:30;;;;;;;10.50;2.77;;;7.60;99.90;;;;;;5058958;28;20274;-89
2022/05/04 10:50:02;;;;;;;8.63;2.97;;;7.60;99.90;;;;;;5058629;28;20212;-90
2022/05/04 10:52:47;;;;;;;8.07;2.63;;;7.60;99.90;;;;;;5058071;28;20222;-89
2022/05/04 10:55:19;;;;;;;14.77;3.17;;;7.60;99.90;;;;;;5059570;28;20580;-89
2022/05/04 10:57:50;;;;;;;8.83;3.03;;;7.60;99.90;;;;;;5059121;28;20261;-89
2022/05/04 11:01:05;;;;;;;9.97;3.23;;;7.70;99.90;;;;;;5060390;28;20219;-89
2022/05/04 11:04:07;;;;;;;11.10;2.93;;;7.60;99.90;;;;;;5059978;28;20201;-90
2022/05/04 11:06:40;;;;;;;7.03;2.63;;;7.60;99.90;;;;;;5064452;28;20204;-89
2022/05/04 11:09:13;;;;;;;7.87;3.07;;;7.50;99.90;;;;;;5060193;28;20307;-89
2022/05/04 11:11:45;;;;;;;12.97;2.80;;;7.50;99.90;;;;;;5060213;28;20207;-89
2022/05/04 11:14:18;;;;;;;5.73;2.27;;;7.60;99.90;;;;;;5060242;28;20310;-92
2022/05/04 11:16:50;;;;;;;8.67;2.83;;;7.60;99.90;;;;;;5060469;28;20270;-87
2022/05/04 11:19:25;;;;;;;7.30;2.20;;;7.60;99.90;;;;;;5060172;28;20207;-89
2022/05/04 11:21:57;;;;;;;8.90;2.60;;;7.60;99.90;;;;;;5060380;28;20293;-89
2022/05/04 11:24:30;;;;;;;9.07;2.90;;;7.60;99.90;;;;;;5059486;28;20211;-89
2022/05/04 11:27:01;;;;;;;8.70;2.60;;;7.60;99.90;;;;;;5059804;28;20626;-88
2022/05/04 11:29:33;;;;;;;8.77;2.90;;;7.50;99.90;;;;;;5059233;28;20308;-89
2022/05/04 11:32:07;;;;;;;8.90;2.87;;;7.60;99.90;;;;;;5060178;28;20212;-89
2022/05/04 11:34:42;;;;;;;5.53;2.50;;;7.60;99.90;;;;;;5063094;28;20292;-89
2022/05/04 11:37:14;;;;;;;11.13;3.10;;;7.60;99.90;;;;;;5060504;28;20770;-89
2022/05/04 11:39:45;;;;;;;15.20;3.20;;;7.50;99.90;;;;;;5069336;28;20246;-89
2022/05/04 11:42:16;;;;;;;7.77;2.80;;;7.50;99.90;;;;;;5076424;28;20229;-90
2022/05/04 11:44:51;;;;;;;12.10;2.90;;;7.50;99.90;;;;;;5078474;28;20200;-90
2022/05/04 11:47:23;;;;;;;12.77;2.70;;;7.50;99.90;;;;;;5078229;28;20184;-92
2022/05/04 11:49:56;;;;;;;8.63;3.00;;;7.50;99.90;;;;;;5078402;28;20219;-89
2022/05/04 11:52:27;;;;;;;11.13;2.87;;;7.60;99.90;;;;;;5078598;28;20196;-90
2022/05/04 11:55:03;;;;;;;10.87;3.53;;;7.50;99.90;;;;;;5078415;28;20203;-91
2022/05/04 11:57:42;;;;;;;11.33;3.50;;;7.40;99.90;;;;;;5076028;28;20227;-90
2022/05/04 12:00:17;;;;;;;9.47;3.20;;;7.50;99.90;;;;;;5073600;28;20215;-91
2022/05/04 12:02:49;;;;;;;10.20;3.57;;;7.50;99.90;;;;;;5072658;28;20216;-90
2022/05/04 12:05:24;;;;;;;9.40;3.10;;;7.60;99.90;;;;;;5052974;28;20197;-90
2022/05/04 12:07:55;;;;;;;11.77;3.30;;;7.60;99.90;;;;;;5053482;28;20200;-90
2022/05/04 12:10:27;;;;;;;12.03;3.40;;;7.70;99.90;;;;;;5053394;28;20197;-90
2022/05/04 12:13:00;;;;;;;9.83;3.30;;;7.70;99.90;;;;;;5052958;28;20223;-90
2022/05/04 12:15:34;;;;;;;20.23;3.70;;;7.80;99.90;;;;;;5052190;28;20209;-90
2022/05/04 12:18:07;;;;;;;9.30;2.90;;;7.80;99.90;;;;;;5053882;28;20201;-90
2022/05/04 12:20:56;;;;;;;8.00;2.90;;;7.80;99.90;;;;;;5053800;28;20207;-89
2022/05/04 12:23:29;;;;;;;6.63;2.97;;;7.80;99.90;;;;;;5055915;28;20197;-90
2022/05/04 12:26:01;;;;;;;10.47;3.57;;;7.90;99.90;;;;;;5057235;28;20228;-90
2022/05/04 12:28:33;;;;;;;7.83;3.30;;;7.90;99.90;;;;;;5054242;28;20218;-89
2022/05/04 12:33:54;;;;;;;8.10;3.07;;;8.10;99.90;;;;;;5051338;28;20215;-90
2022/05/04 12:36:27;;;;;;;14.03;3.33;;;8.00;99.90;;;;;;5046001;28;20270;-90
2022/05/04 12:39:01;;;;;;;11.03;3.70;;;7.90;99.90;;;;;;5046055;28;20201;-89
2022/05/04 12:41:34;;;;;;;8.47;3.10;;;7.90;99.90;;;;;;5024170;28;20208;-90
2022/05/04 12:44:06;;;;;;;11.63;3.60;;;7.90;99.90;;;;;;5059548;28;20235;-88
2022/05/04 12:46:39;;;;;;;12.17;3.70;;;7.90;99.90;;;;;;5061941;28;20258;-89
2022/05/04 12:49:10;;;;;;;7.20;3.60;;;8.00;99.90;;;;;;5059662;28;20217;-90
2022/05/04 12:51:44;;;;;;;11.33;3.23;;;8.00;99.90;;;;;;5061885;28;20212;-89
2022/05/04 12:54:18;;;;;;;9.13;3.27;;;8.00;99.90;;;;;;5063960;28;20211;-89
2022/05/04 12:56:51;;;;;;;11.83;3.80;;;8.00;99.90;;;;;;5060605;28;20295;-89
2022/05/04 12:59:22;;;;;;;10.23;3.90;;;8.00;99.90;;;;;;5061653;28;20216;-89
2022/05/04 13:01:54;;;;;;;11.57;3.50;;;8.00;99.90;;;;;;5066122;28;20208;-90
2022/05/04 13:04:26;;;;;;;12.07;3.50;;;7.90;99.90;;;;;;5049700;28;20208;-89
2022/05/04 13:06:59;;;;;;;6.77;3.47;;;8.00;99.90;;;;;;5051751;28;20209;-90
2022/05/04 13:09:30;;;;;;;7.57;3.80;;;8.00;99.90;;;;;;5055314;28;20247;-88
2022/05/04 13:12:02;;;;;;;11.23;3.70;;;7.90;99.90;;;;;;5054899;28;20227;-90
2022/05/04 13:14:34;;;;;;;11.27;3.50;;;7.90;99.90;;;;;;5054910;28;20287;-90
2022/05/04 13:17:05;;;;;;;10.03;3.30;;;7.90;99.90;;;;;;5045506;28;20288;-90
2022/05/04 13:19:38;;;;;;;9.83;3.60;;;7.90;99.90;;;;;;5043741;28;20266;-90
2022/05/04 13:22:11;;;;;;;10.07;3.80;;;8.00;99.90;;;;;;5042939;28;20216;-90
2022/05/04 13:24:43;;;;;;;10.83;3.40;;;8.00;99.90;;;;;;5042510;28;20209;-90
2022/05/04 13:27:15;;;;;;;10.10;3.77;;;8.00;99.90;;;;;;5038034;28;20517;-90
2022/05/04 13:29:52;;;;;;;12.90;3.70;;;8.00;99.90;;;;;;5041154;28;20208;-90
2022/05/04 13:32:24;;;;;;;10.63;3.50;;;7.90;99.90;;;;;;5042038;28;20241;-90
2022/05/04 13:35:01;;;;;;;9.10;3.53;;;8.00;99.90;;;;;;5042232;28;20260;-90
2022/05/04 13:37:34;;;;;;;9.90;4.10;;;8.10;99.90;;;;;;5037729;28;20684;-90
2022/05/04 13:40:07;;;;;;;11.37;3.53;;;8.10;99.90;;;;;;5040554;28;20367;-89
2022/05/04 13:42:38;;;;;;;10.80;3.63;;;8.20;99.90;;;;;;5040766;28;20228;-89
2022/05/04 13:45:14;;;;;;;13.00;4.03;;;8.20;99.90;;;;;;5040233;28;20228;-89
2022/05/04 13:47:45;;;;;;;9.90;3.30;;;8.20;99.90;;;;;;5039665;28;20209;-89
2022/05/04 13:55:56;;;;;;;10.70;3.90;;;8.50;99.90;;;;;;5038423;28;20244;-90
2022/05/04 13:58:30;;;;;;;9.23;3.80;;;8.60;99.90;;;;;;5038594;28;20244;-90
2022/05/04 14:01:01;;;;;;;7.43;3.10;;;8.70;99.90;;;;;;5038216;28;20224;-89
2022/05/04 14:03:35;;;;;;;10.30;4.23;;;8.70;99.90;;;;;;5039531;28;20240;-89
2022/05/04 14:06:07;;;;;;;7.17;3.10;;;8.80;99.90;;;;;;5037404;28;20205;-90
2022/05/04 14:08:40;;;;;;;7.83;3.40;;;8.80;99.90;;;;;;5038898;28;20224;-89
2022/05/04 14:11:11;;;;;;;10.90;3.23;;;8.80;99.90;;;;;;5040271;28;20205;-89
2022/05/04 14:13:42;;;;;;;8.57;3.17;;;8.90;99.90;;;;;;5043112;28;20211;-90
2022/05/04 14:16:14;;;;;;;7.13;3.43;;;8.90;99.90;;;;;;5041554;28;20205;-90